sensor_id;sensor_type;location;lat;lon;timestamp;P1;durP1;ratioP1;P2;durP2;ratioP2
26977;SDS011;56314;48.088;11.642;2022-08-25T00:02:18;6.45;;;5.82;;
26977;SDS011;56314;48.088;11.642;2022-08-25T00:04:44;6.28;;;5.68;;
26977;SDS011;56314;48.088;11.642;2022-08-25T00:07:10;9.93;;;6.07;;
26977;SDS011;56314;48.088;11.642;2022-08-25T00:09:36;8.55;;;5.55;;
26977;SDS011;56314;48.088;11.642;2022-08-25T00:12:01;7.95;;;6.07;;
26977;SDS011;56314;48.088;11.642;2022-08-25T00:14:29;7.60;;;6.30;;
26977;SDS011;56314;48.088;11.642;2022-08-25T00:16:57;7.65;;;6.25;;
26977;SDS011;56314;48.088;11.642;2022-08-25T00:19:24;8.60;;;6.40;;
26977;SDS011;56314;48.088;11.642;2022-08-25T00:21:52;8.85;;;5.85;;
26977;SDS011;56314;48.088;11.642;2022-08-25T00:24:18;6.93;;;6.25;;
26977;SDS011;56314;48.088;11.642;2022-08-25T00:26:45;6.53;;;5.82;;
26977;SDS011;56314;48.088;11.642;2022-08-25T00:29:13;7.72;;;6.68;;
26977;SDS011;56314;48.088;11.642;2022-08-25T00:31:39;9.65;;;5.75;;
26977;SDS011;56314;48.088;11.642;2022-08-25T00:34:10;8.52;;;6.30;;
26977;SDS011;56314;48.088;11.642;2022-08-25T00:39:05;6.50;;;5.80;;
26977;SDS011;56314;48.088;11.642;2022-08-25T00:41:32;7.43;;;6.72;;
26977;SDS011;56314;48.088;11.642;2022-08-25T00:44:00;7.28;;;6.55;;
26977;SDS011;56314;48.088;11.642;2022-08-25T00:46:30;8.80;;;6.80;;
26977;SDS011;56314;48.088;11.642;2022-08-25T00:49:09;7.13;;;6.43;;
26977;SDS011;56314;48.088;11.642;2022-08-25T00:51:48;7.55;;;6.75;;
26977;SDS011;56314;48.088;11.642;2022-08-25T00:54:19;9.90;;;7.63;;
26977;SDS011;56314;48.088;11.642;2022-08-25T00:56:48;8.20;;;7.40;;
26977;SDS011;56314;48.088;11.642;2022-08-25T00:59:17;8.20;;;7.40;;
26977;SDS011;56314;48.088;11.642;2022-08-25T01:01:44;8.57;;;7.50;;
26977;SDS011;56314;48.088;11.642;2022-08-25T01:04:10;9.50;;;7.80;;
26977;SDS011;56314;48.088;11.642;2022-08-25T01:06:37;9.60;;;7.88;;
26977;SDS011;56314;48.088;11.642;2022-08-25T01:09:05;9.90;;;8.05;;
26977;SDS011;56314;48.088;11.642;2022-08-25T01:11:31;9.18;;;7.93;;
26977;SDS011;56314;48.088;11.642;2022-08-25T01:13:58;10.15;;;7.45;;
26977;SDS011;56314;48.088;11.642;2022-08-25T01:16:30;8.75;;;7.85;;
26977;SDS011;56314;48.088;11.642;2022-08-25T01:18:58;10.40;;;8.98;;
26977;SDS011;56314;48.088;11.642;2022-08-25T01:21:25;9.40;;;8.27;;
26977;SDS011;56314;48.088;11.642;2022-08-25T01:23:52;13.10;;;8.80;;
26977;SDS011;56314;48.088;11.642;2022-08-25T01:26:23;9.82;;;8.73;;
26977;SDS011;56314;48.088;11.642;2022-08-25T01:28:51;9.77;;;8.38;;
26977;SDS011;56314;48.088;11.642;2022-08-25T01:34:03;7.25;;;6.55;;
26977;SDS011;56314;48.088;11.642;2022-08-25T01:36:30;8.63;;;7.63;;
26977;SDS011;56314;48.088;11.642;2022-08-25T01:38:56;9.82;;;7.18;;
26977;SDS011;56314;48.088;11.642;2022-08-25T01:41:30;9.10;;;7.05;;
26977;SDS011;56314;48.088;11.642;2022-08-25T01:44:04;9.40;;;7.25;;
26977;SDS011;56314;48.088;11.642;2022-08-25T01:46:32;7.85;;;7.00;;
26977;SDS011;56314;48.088;11.642;2022-08-25T01:48:59;9.70;;;6.45;;
26977;SDS011;56314;48.088;11.642;2022-08-25T01:51:28;10.80;;;6.22;;
26977;SDS011;56314;48.088;11.642;2022-08-25T01:53:57;8.23;;;6.82;;
26977;SDS011;56314;48.088;11.642;2022-08-25T01:56:22;7.38;;;6.53;;
26977;SDS011;56314;48.088;11.642;2022-08-25T01:58:48;10.88;;;6.88;;
26977;SDS011;56314;48.088;11.642;2022-08-25T02:01:18;8.05;;;7.25;;
26977;SDS011;56314;48.088;11.642;2022-08-25T02:03:46;7.57;;;6.75;;
26977;SDS011;56314;48.088;11.642;2022-08-25T02:06:14;8.50;;;6.97;;
26977;SDS011;56314;48.088;11.642;2022-08-25T02:08:42;8.50;;;6.82;;
26977;SDS011;56314;48.088;11.642;2022-08-25T02:11:12;10.13;;;7.28;;
26977;SDS011;56314;48.088;11.642;2022-08-25T02:13:39;9.25;;;7.38;;
26977;SDS011;56314;48.088;11.642;2022-08-25T02:16:06;7.93;;;7.00;;
26977;SDS011;56314;48.088;11.642;2022-08-25T02:18:33;9.82;;;6.47;;
26977;SDS011;56314;48.088;11.642;2022-08-25T02:20:59;9.63;;;7.35;;
26977;SDS011;56314;48.088;11.642;2022-08-25T02:23:24;9.50;;;6.90;;
26977;SDS011;56314;48.088;11.642;2022-08-25T02:25:51;10.20;;;7.90;;
26977;SDS011;56314;48.088;11.642;2022-08-25T02:28:16;8.82;;;7.93;;
26977;SDS011;56314;48.088;11.642;2022-08-25T02:30:42;8.80;;;7.75;;
26977;SDS011;56314;48.088;11.642;2022-08-25T02:33:08;9.23;;;7.65;;
26977;SDS011;56314;48.088;11.642;2022-08-25T02:35:34;10.07;;;7.53;;
26977;SDS011;56314;48.088;11.642;2022-08-25T02:38:00;8.80;;;7.07;;
26977;SDS011;56314;48.088;11.642;2022-08-25T02:40:26;9.43;;;7.75;;
26977;SDS011;56314;48.088;11.642;2022-08-25T02:42:52;11.73;;;7.28;;
26977;SDS011;56314;48.088;11.642;2022-08-25T02:45:19;8.95;;;7.30;;
26977;SDS011;56314;48.088;11.642;2022-08-25T02:47:45;9.38;;;6.63;;
26977;SDS011;56314;48.088;11.642;2022-08-25T02:50:11;8.25;;;6.95;;
26977;SDS011;56314;48.088;11.642;2022-08-25T02:52:37;8.13;;;6.45;;
26977;SDS011;56314;48.088;11.642;2022-08-25T02:55:04;7.75;;;6.93;;
26977;SDS011;56314;48.088;11.642;2022-08-25T02:57:32;7.25;;;6.25;;
26977;SDS011;56314;48.088;11.642;2022-08-25T02:59:57;8.80;;;6.85;;
26977;SDS011;56314;48.088;11.642;2022-08-25T03:02:23;7.22;;;6.53;;
26977;SDS011;56314;48.088;11.642;2022-08-25T03:04:50;8.18;;;6.55;;
26977;SDS011;56314;48.088;11.642;2022-08-25T03:07:16;9.57;;;7.20;;
26977;SDS011;56314;48.088;11.642;2022-08-25T03:09:42;8.10;;;6.90;;
26977;SDS011;56314;48.088;11.642;2022-08-25T03:12:08;9.07;;;7.22;;
26977;SDS011;56314;48.088;11.642;2022-08-25T03:14:35;8.60;;;7.22;;
26977;SDS011;56314;48.088;11.642;2022-08-25T03:17:00;8.80;;;6.78;;
26977;SDS011;56314;48.088;11.642;2022-08-25T03:19:25;8.80;;;6.90;;
26977;SDS011;56314;48.088;11.642;2022-08-25T03:21:51;9.05;;;6.90;;
26977;SDS011;56314;48.088;11.642;2022-08-25T03:24:19;7.47;;;6.78;;
26977;SDS011;56314;48.088;11.642;2022-08-25T03:26:45;9.15;;;6.43;;
26977;SDS011;56314;48.088;11.642;2022-08-25T03:29:23;8.25;;;7.13;;
26977;SDS011;56314;48.088;11.642;2022-08-25T03:34:21;7.63;;;6.75;;
26977;SDS011;56314;48.088;11.642;2022-08-25T03:36:49;9.60;;;6.63;;
26977;SDS011;56314;48.088;11.642;2022-08-25T03:39:17;13.48;;;7.18;;
26977;SDS011;56314;48.088;11.642;2022-08-25T03:41:44;8.27;;;6.88;;
26977;SDS011;56314;48.088;11.642;2022-08-25T03:44:11;7.43;;;6.70;;
26977;SDS011;56314;48.088;11.642;2022-08-25T03:46:38;10.63;;;7.57;;
26977;SDS011;56314;48.088;11.642;2022-08-25T03:49:06;8.30;;;6.40;;
26977;SDS011;56314;48.088;11.642;2022-08-25T03:51:39;8.65;;;7.63;;
26977;SDS011;56314;48.088;11.642;2022-08-25T03:54:06;8.77;;;7.38;;
26977;SDS011;56314;48.088;11.642;2022-08-25T03:56:34;8.20;;;6.72;;
26977;SDS011;56314;48.088;11.642;2022-08-25T03:58:59;12.77;;;8.77;;
26977;SDS011;56314;48.088;11.642;2022-08-25T04:01:25;15.18;;;10.15;;
26977;SDS011;56314;48.088;11.642;2022-08-25T04:03:50;8.45;;;6.72;;
26977;SDS011;56314;48.088;11.642;2022-08-25T04:06:16;9.73;;;6.90;;
26977;SDS011;56314;48.088;11.642;2022-08-25T04:08:42;8.10;;;7.05;;
26977;SDS011;56314;48.088;11.642;2022-08-25T04:11:09;7.45;;;6.25;;
26977;SDS011;56314;48.088;11.642;2022-08-25T04:13:37;7.90;;;6.18;;
26977;SDS011;56314;48.088;11.642;2022-08-25T04:16:08;9.43;;;6.97;;
26977;SDS011;56314;48.088;11.642;2022-08-25T04:18:36;10.40;;;7.83;;
26977;SDS011;56314;48.088;11.642;2022-08-25T04:21:03;12.32;;;8.25;;
26977;SDS011;56314;48.088;11.642;2022-08-25T04:23:30;8.90;;;7.55;;
26977;SDS011;56314;48.088;11.642;2022-08-25T04:25:56;11.35;;;7.05;;
26977;SDS011;56314;48.088;11.642;2022-08-25T04:28:21;12.10;;;8.57;;
26977;SDS011;56314;48.088;11.642;2022-08-25T04:30:47;11.65;;;8.43;;
26977;SDS011;56314;48.088;11.642;2022-08-25T04:33:12;13.00;;;9.00;;
26977;SDS011;56314;48.088;11.642;2022-08-25T04:35:38;13.55;;;9.60;;
26977;SDS011;56314;48.088;11.642;2022-08-25T04:38:05;10.20;;;9.10;;
26977;SDS011;56314;48.088;11.642;2022-08-25T04:40:30;14.18;;;9.40;;
26977;SDS011;56314;48.088;11.642;2022-08-25T04:42:56;11.23;;;9.15;;
26977;SDS011;56314;48.088;11.642;2022-08-25T04:45:21;11.15;;;8.32;;
26977;SDS011;56314;48.088;11.642;2022-08-25T04:47:46;11.30;;;8.77;;
26977;SDS011;56314;48.088;11.642;2022-08-25T04:50:12;10.52;;;7.75;;
26977;SDS011;56314;48.088;11.642;2022-08-25T04:52:37;9.93;;;7.55;;
26977;SDS011;56314;48.088;11.642;2022-08-25T04:55:03;9.25;;;7.68;;
26977;SDS011;56314;48.088;11.642;2022-08-25T04:57:28;10.88;;;7.70;;
26977;SDS011;56314;48.088;11.642;2022-08-25T04:59:54;11.30;;;6.82;;
26977;SDS011;56314;48.088;11.642;2022-08-25T05:02:19;10.25;;;7.28;;
26977;SDS011;56314;48.088;11.642;2022-08-25T05:04:45;8.55;;;7.40;;
26977;SDS011;56314;48.088;11.642;2022-08-25T05:07:11;10.38;;;7.00;;
26977;SDS011;56314;48.088;11.642;2022-08-25T05:09:36;7.05;;;6.25;;
26977;SDS011;56314;48.088;11.642;2022-08-25T05:12:02;10.73;;;6.70;;
26977;SDS011;56314;48.088;11.642;2022-08-25T05:14:28;8.38;;;6.30;;
26977;SDS011;56314;48.088;11.642;2022-08-25T05:16:55;11.27;;;7.28;;
26977;SDS011;56314;48.088;11.642;2022-08-25T05:19:21;9.80;;;7.53;;
26977;SDS011;56314;48.088;11.642;2022-08-25T05:21:48;10.18;;;7.30;;
26977;SDS011;56314;48.088;11.642;2022-08-25T05:24:14;8.95;;;8.05;;
26977;SDS011;56314;48.088;11.642;2022-08-25T05:26:39;11.23;;;7.63;;
26977;SDS011;56314;48.088;11.642;2022-08-25T05:29:05;12.40;;;8.63;;
26977;SDS011;56314;48.088;11.642;2022-08-25T05:31:31;11.77;;;9.10;;
26977;SDS011;56314;48.088;11.642;2022-08-25T05:33:57;13.32;;;9.80;;
26977;SDS011;56314;48.088;11.642;2022-08-25T05:36:24;11.32;;;10.13;;
26977;SDS011;56314;48.088;11.642;2022-08-25T05:38:51;13.52;;;9.95;;
26977;SDS011;56314;48.088;11.642;2022-08-25T05:41:18;11.02;;;9.60;;
26977;SDS011;56314;48.088;11.642;2022-08-25T05:43:46;12.23;;;9.50;;
26977;SDS011;56314;48.088;11.642;2022-08-25T05:46:13;12.70;;;9.73;;
26977;SDS011;56314;48.088;11.642;2022-08-25T05:48:39;12.88;;;10.70;;
26977;SDS011;56314;48.088;11.642;2022-08-25T05:51:06;12.23;;;10.13;;
26977;SDS011;56314;48.088;11.642;2022-08-25T05:53:34;15.98;;;10.38;;
26977;SDS011;56314;48.088;11.642;2022-08-25T05:56:00;15.15;;;11.32;;
26977;SDS011;56314;48.088;11.642;2022-08-25T05:58:26;15.50;;;11.57;;
26977;SDS011;56314;48.088;11.642;2022-08-25T06:00:53;16.65;;;11.38;;
26977;SDS011;56314;48.088;11.642;2022-08-25T06:03:18;16.45;;;11.43;;
26977;SDS011;56314;48.088;11.642;2022-08-25T06:05:44;13.40;;;11.05;;
26977;SDS011;56314;48.088;11.642;2022-08-25T06:08:09;15.23;;;11.93;;
26977;SDS011;56314;48.088;11.642;2022-08-25T06:10:35;16.33;;;11.75;;
26977;SDS011;56314;48.088;11.642;2022-08-25T06:13:01;19.15;;;11.80;;
26977;SDS011;56314;48.088;11.642;2022-08-25T06:15:27;17.23;;;11.20;;
26977;SDS011;56314;48.088;11.642;2022-08-25T06:17:53;16.13;;;10.77;;
26977;SDS011;56314;48.088;11.642;2022-08-25T06:20:22;17.98;;;11.35;;
26977;SDS011;56314;48.088;11.642;2022-08-25T06:22:51;20.67;;;12.50;;
26977;SDS011;56314;48.088;11.642;2022-08-25T06:25:19;15.57;;;12.35;;
26977;SDS011;56314;48.088;11.642;2022-08-25T06:27:46;18.02;;;11.70;;
26977;SDS011;56314;48.088;11.642;2022-08-25T06:30:13;17.30;;;12.13;;
26977;SDS011;56314;48.088;11.642;2022-08-25T06:32:41;17.30;;;11.68;;
26977;SDS011;56314;48.088;11.642;2022-08-25T06:35:09;16.55;;;11.63;;
26977;SDS011;56314;48.088;11.642;2022-08-25T06:37:36;13.98;;;12.07;;
26977;SDS011;56314;48.088;11.642;2022-08-25T06:40:03;20.40;;;11.65;;
26977;SDS011;56314;48.088;11.642;2022-08-25T06:42:30;17.30;;;10.73;;
26977;SDS011;56314;48.088;11.642;2022-08-25T06:44:55;17.33;;;11.88;;
26977;SDS011;56314;48.088;11.642;2022-08-25T06:47:21;16.23;;;11.43;;
26977;SDS011;56314;48.088;11.642;2022-08-25T06:49:46;15.95;;;12.10;;
26977;SDS011;56314;48.088;11.642;2022-08-25T06:52:12;14.10;;;11.45;;
26977;SDS011;56314;48.088;11.642;2022-08-25T06:54:38;14.00;;;10.55;;
26977;SDS011;56314;48.088;11.642;2022-08-25T06:57:05;11.95;;;9.63;;
26977;SDS011;56314;48.088;11.642;2022-08-25T06:59:31;10.07;;;8.70;;
26977;SDS011;56314;48.088;11.642;2022-08-25T07:02:00;10.27;;;9.05;;
26977;SDS011;56314;48.088;11.642;2022-08-25T07:04:28;10.07;;;8.77;;
26977;SDS011;56314;48.088;11.642;2022-08-25T07:06:53;13.50;;;8.95;;
26977;SDS011;56314;48.088;11.642;2022-08-25T07:09:18;12.05;;;8.95;;
26977;SDS011;56314;48.088;11.642;2022-08-25T07:11:44;9.32;;;8.35;;
26977;SDS011;56314;48.088;11.642;2022-08-25T07:14:11;9.20;;;8.30;;
26977;SDS011;56314;48.088;11.642;2022-08-25T07:16:38;10.15;;;8.25;;
26977;SDS011;56314;48.088;11.642;2022-08-25T07:19:04;10.90;;;7.50;;
26977;SDS011;56314;48.088;11.642;2022-08-25T07:21:30;7.90;;;7.10;;
26977;SDS011;56314;48.088;11.642;2022-08-25T07:23:58;9.38;;;8.05;;
26977;SDS011;56314;48.088;11.642;2022-08-25T07:26:25;8.73;;;7.60;;
26977;SDS011;56314;48.088;11.642;2022-08-25T07:28:53;9.20;;;7.65;;
26977;SDS011;56314;48.088;11.642;2022-08-25T07:31:19;8.50;;;7.70;;
26977;SDS011;56314;48.088;11.642;2022-08-25T07:33:44;12.30;;;8.30;;
26977;SDS011;56314;48.088;11.642;2022-08-25T07:36:30;16.33;;;9.00;;
26977;SDS011;56314;48.088;11.642;2022-08-25T07:38:56;14.10;;;8.43;;
26977;SDS011;56314;48.088;11.642;2022-08-25T07:41:23;9.48;;;8.50;;
26977;SDS011;56314;48.088;11.642;2022-08-25T07:43:48;10.93;;;7.70;;
26977;SDS011;56314;48.088;11.642;2022-08-25T07:46:14;9.65;;;7.88;;
26977;SDS011;56314;48.088;11.642;2022-08-25T07:48:39;10.32;;;7.55;;
26977;SDS011;56314;48.088;11.642;2022-08-25T07:51:06;9.40;;;7.25;;
26977;SDS011;56314;48.088;11.642;2022-08-25T07:53:34;12.52;;;9.07;;
26977;SDS011;56314;48.088;11.642;2022-08-25T07:56:00;9.30;;;8.18;;
26977;SDS011;56314;48.088;11.642;2022-08-25T07:58:25;9.13;;;7.72;;
26977;SDS011;56314;48.088;11.642;2022-08-25T08:00:51;8.63;;;7.72;;
26977;SDS011;56314;48.088;11.642;2022-08-25T08:03:17;9.82;;;7.65;;
26977;SDS011;56314;48.088;11.642;2022-08-25T08:05:44;10.43;;;7.05;;
26977;SDS011;56314;48.088;11.642;2022-08-25T08:08:09;10.63;;;7.40;;
26977;SDS011;56314;48.088;11.642;2022-08-25T08:10:37;9.32;;;8.05;;
26977;SDS011;56314;48.088;11.642;2022-08-25T08:13:03;8.40;;;7.32;;
26977;SDS011;56314;48.088;11.642;2022-08-25T08:15:29;9.40;;;6.88;;
26977;SDS011;56314;48.088;11.642;2022-08-25T08:17:54;6.00;;;5.40;;
26977;SDS011;56314;48.088;11.642;2022-08-25T08:20:20;6.57;;;5.95;;
26977;SDS011;56314;48.088;11.642;2022-08-25T08:22:45;7.85;;;6.65;;
26977;SDS011;56314;48.088;11.642;2022-08-25T08:25:10;7.07;;;5.80;;
26977;SDS011;56314;48.088;11.642;2022-08-25T08:27:36;8.00;;;6.70;;
26977;SDS011;56314;48.088;11.642;2022-08-25T08:30:03;7.72;;;6.43;;
26977;SDS011;56314;48.088;11.642;2022-08-25T08:32:29;8.30;;;6.32;;
26977;SDS011;56314;48.088;11.642;2022-08-25T08:34:55;9.65;;;6.28;;
26977;SDS011;56314;48.088;11.642;2022-08-25T08:37:20;7.38;;;5.80;;
26977;SDS011;56314;48.088;11.642;2022-08-25T08:39:46;6.50;;;5.65;;
26977;SDS011;56314;48.088;11.642;2022-08-25T08:50:31;6.65;;;5.13;;
26977;SDS011;56314;48.088;11.642;2022-08-25T08:53:18;6.25;;;5.60;;
26977;SDS011;56314;48.088;11.642;2022-08-25T08:55:50;7.07;;;4.85;;
26977;SDS011;56314;48.088;11.642;2022-08-25T09:00:48;5.15;;;4.43;;
26977;SDS011;56314;48.088;11.642;2022-08-25T09:04:04;5.07;;;4.18;;
26977;SDS011;56314;48.088;11.642;2022-08-25T09:08:41;4.90;;;4.50;;
26977;SDS011;56314;48.088;11.642;2022-08-25T09:13:43;4.47;;;2.95;;
26977;SDS011;56314;48.088;11.642;2022-08-25T09:17:18;2.95;;;2.75;;
26977;SDS011;56314;48.088;11.642;2022-08-25T09:24:23;5.22;;;4.72;;
26977;SDS011;56314;48.088;11.642;2022-08-25T09:29:49;4.65;;;4.07;;
26977;SDS011;56314;48.088;11.642;2022-08-25T09:32:17;8.63;;;4.60;;
26977;SDS011;56314;48.088;11.642;2022-08-25T09:34:43;4.50;;;4.07;;
26977;SDS011;56314;48.088;11.642;2022-08-25T09:37:10;4.78;;;4.20;;
26977;SDS011;56314;48.088;11.642;2022-08-25T09:39:36;5.53;;;5.03;;
26977;SDS011;56314;48.088;11.642;2022-08-25T09:42:03;4.55;;;4.22;;
26977;SDS011;56314;48.088;11.642;2022-08-25T09:47:06;7.25;;;4.93;;
26977;SDS011;56314;48.088;11.642;2022-08-25T09:49:44;7.30;;;4.65;;
26977;SDS011;56314;48.088;11.642;2022-08-25T09:54:52;4.97;;;4.53;;
26977;SDS011;56314;48.088;11.642;2022-08-25T09:57:53;7.55;;;4.80;;
26977;SDS011;56314;48.088;11.642;2022-08-25T10:03:05;7.57;;;4.30;;
26977;SDS011;56314;48.088;11.642;2022-08-25T10:08:28;4.22;;;3.83;;
26977;SDS011;56314;48.088;11.642;2022-08-25T10:10:57;3.83;;;3.45;;
26977;SDS011;56314;48.088;11.642;2022-08-25T10:16:05;4.57;;;3.28;;
26977;SDS011;56314;48.088;11.642;2022-08-25T10:18:34;3.75;;;3.45;;
26977;SDS011;56314;48.088;11.642;2022-08-25T10:21:07;3.47;;;3.00;;
26977;SDS011;56314;48.088;11.642;2022-08-25T10:23:41;4.85;;;3.25;;
26977;SDS011;56314;48.088;11.642;2022-08-25T10:27:21;4.35;;;3.38;;
26977;SDS011;56314;48.088;11.642;2022-08-25T10:32:09;4.28;;;3.75;;
26977;SDS011;56314;48.088;11.642;2022-08-25T10:34:49;5.15;;;3.50;;
26977;SDS011;56314;48.088;11.642;2022-08-25T10:37:22;5.88;;;3.85;;
26977;SDS011;56314;48.088;11.642;2022-08-25T10:45:20;4.43;;;3.95;;
26977;SDS011;56314;48.088;11.642;2022-08-25T10:48:11;4.70;;;4.30;;
26977;SDS011;56314;48.088;11.642;2022-08-25T10:56:39;4.72;;;4.07;;
26977;SDS011;56314;48.088;11.642;2022-08-25T11:07:46;7.25;;;4.82;;
26977;SDS011;56314;48.088;11.642;2022-08-25T11:10:16;8.10;;;5.70;;
26977;SDS011;56314;48.088;11.642;2022-08-25T11:12:49;8.10;;;4.82;;
26977;SDS011;56314;48.088;11.642;2022-08-25T11:15:24;8.23;;;5.20;;
26977;SDS011;56314;48.088;11.642;2022-08-25T11:23:24;7.28;;;4.60;;
26977;SDS011;56314;48.088;11.642;2022-08-25T11:26:09;7.38;;;5.35;;
26977;SDS011;56314;48.088;11.642;2022-08-25T11:28:46;6.88;;;5.10;;
26977;SDS011;56314;48.088;11.642;2022-08-25T11:31:13;6.25;;;5.05;;
26977;SDS011;56314;48.088;11.642;2022-08-25T11:33:41;6.80;;;5.35;;
26977;SDS011;56314;48.088;11.642;2022-08-25T11:36:50;8.43;;;5.38;;
26977;SDS011;56314;48.088;11.642;2022-08-25T11:49:40;9.65;;;5.65;;
26977;SDS011;56314;48.088;11.642;2022-08-25T11:55:14;6.90;;;5.00;;
26977;SDS011;56314;48.088;11.642;2022-08-25T11:57:39;6.10;;;5.57;;
26977;SDS011;56314;48.088;11.642;2022-08-25T12:02:48;11.25;;;5.75;;
26977;SDS011;56314;48.088;11.642;2022-08-25T12:10:13;10.43;;;5.57;;
26977;SDS011;56314;48.088;11.642;2022-08-25T12:15:20;9.10;;;6.00;;
26977;SDS011;56314;48.088;11.642;2022-08-25T12:23:37;8.73;;;5.63;;
26977;SDS011;56314;48.088;11.642;2022-08-25T12:31:42;9.93;;;5.35;;
26977;SDS011;56314;48.088;11.642;2022-08-25T12:37:24;8.35;;;5.85;;
26977;SDS011;56314;48.088;11.642;2022-08-25T12:47:41;9.75;;;6.35;;
26977;SDS011;56314;48.088;11.642;2022-08-25T12:50:34;9.25;;;5.63;;
26977;SDS011;56314;48.088;11.642;2022-08-25T12:55:53;9.27;;;6.38;;
26977;SDS011;56314;48.088;11.642;2022-08-25T12:58:27;8.80;;;6.57;;
26977;SDS011;56314;48.088;11.642;2022-08-25T13:04:14;17.33;;;6.25;;
26977;SDS011;56314;48.088;11.642;2022-08-25T13:11:59;8.27;;;6.57;;
26977;SDS011;56314;48.088;11.642;2022-08-25T13:14:39;8.75;;;6.32;;
26977;SDS011;56314;48.088;11.642;2022-08-25T13:17:06;9.85;;;6.60;;
26977;SDS011;56314;48.088;11.642;2022-08-25T13:19:32;13.10;;;7.05;;
26977;SDS011;56314;48.088;11.642;2022-08-25T13:22:00;10.48;;;6.68;;
26977;SDS011;56314;48.088;11.642;2022-08-25T13:24:32;11.75;;;7.15;;
26977;SDS011;56314;48.088;11.642;2022-08-25T13:27:04;9.70;;;6.32;;
26977;SDS011;56314;48.088;11.642;2022-08-25T13:29:34;11.18;;;6.68;;
26977;SDS011;56314;48.088;11.642;2022-08-25T13:34:30;8.40;;;5.82;;
26977;SDS011;56314;48.088;11.642;2022-08-25T13:37:03;7.05;;;6.22;;
26977;SDS011;56314;48.088;11.642;2022-08-25T13:40:14;9.70;;;6.22;;
26977;SDS011;56314;48.088;11.642;2022-08-25T13:42:56;12.73;;;6.90;;
26977;SDS011;56314;48.088;11.642;2022-08-25T13:45:30;12.15;;;6.40;;
26977;SDS011;56314;48.088;11.642;2022-08-25T13:48:01;9.73;;;6.45;;
26977;SDS011;56314;48.088;11.642;2022-08-25T13:50:32;10.30;;;6.80;;
26977;SDS011;56314;48.088;11.642;2022-08-25T13:53:13;12.52;;;6.82;;
26977;SDS011;56314;48.088;11.642;2022-08-25T13:58:26;12.15;;;6.68;;
26977;SDS011;56314;48.088;11.642;2022-08-25T14:03:33;8.45;;;5.38;;
26977;SDS011;56314;48.088;11.642;2022-08-25T14:06:10;10.80;;;6.00;;
26977;SDS011;56314;48.088;11.642;2022-08-25T14:08:47;9.43;;;6.07;;
26977;SDS011;56314;48.088;11.642;2022-08-25T14:16:48;12.07;;;5.97;;
26977;SDS011;56314;48.088;11.642;2022-08-25T14:19:22;7.65;;;5.30;;
26977;SDS011;56314;48.088;11.642;2022-08-25T14:21:49;11.55;;;6.32;;
26977;SDS011;56314;48.088;11.642;2022-08-25T14:24:17;15.50;;;7.95;;
26977;SDS011;56314;48.088;11.642;2022-08-25T14:26:45;10.85;;;6.80;;
26977;SDS011;56314;48.088;11.642;2022-08-25T14:29:11;12.60;;;7.60;;
26977;SDS011;56314;48.088;11.642;2022-08-25T14:31:38;10.70;;;6.63;;
26977;SDS011;56314;48.088;11.642;2022-08-25T14:34:17;11.40;;;6.60;;
26977;SDS011;56314;48.088;11.642;2022-08-25T14:36:45;12.40;;;6.90;;
26977;SDS011;56314;48.088;11.642;2022-08-25T14:39:12;9.55;;;6.63;;
26977;SDS011;56314;48.088;11.642;2022-08-25T14:41:39;14.10;;;6.88;;
26977;SDS011;56314;48.088;11.642;2022-08-25T14:44:05;10.85;;;7.13;;
26977;SDS011;56314;48.088;11.642;2022-08-25T14:46:34;12.65;;;7.10;;
26977;SDS011;56314;48.088;11.642;2022-08-25T14:49:02;16.30;;;7.38;;
26977;SDS011;56314;48.088;11.642;2022-08-25T14:51:30;12.02;;;7.00;;
26977;SDS011;56314;48.088;11.642;2022-08-25T14:54:02;12.00;;;7.20;;
26977;SDS011;56314;48.088;11.642;2022-08-25T14:56:30;8.85;;;6.88;;
26977;SDS011;56314;48.088;11.642;2022-08-25T14:58:56;16.50;;;8.65;;
26977;SDS011;56314;48.088;11.642;2022-08-25T15:01:22;12.63;;;6.80;;
26977;SDS011;56314;48.088;11.642;2022-08-25T15:03:50;8.93;;;6.32;;
26977;SDS011;56314;48.088;11.642;2022-08-25T15:06:18;17.75;;;8.13;;
26977;SDS011;56314;48.088;11.642;2022-08-25T15:08:43;18.40;;;8.35;;
26977;SDS011;56314;48.088;11.642;2022-08-25T15:11:28;14.50;;;8.88;;
26977;SDS011;56314;48.088;11.642;2022-08-25T15:13:54;15.45;;;8.50;;
26977;SDS011;56314;48.088;11.642;2022-08-25T15:16:25;17.63;;;9.18;;
26977;SDS011;56314;48.088;11.642;2022-08-25T15:18:56;14.40;;;8.07;;
26977;SDS011;56314;48.088;11.642;2022-08-25T15:21:22;16.48;;;7.88;;
26977;SDS011;56314;48.088;11.642;2022-08-25T15:23:48;18.08;;;8.13;;
26977;SDS011;56314;48.088;11.642;2022-08-25T15:26:13;17.75;;;8.02;;
26977;SDS011;56314;48.088;11.642;2022-08-25T15:28:41;17.08;;;8.82;;
26977;SDS011;56314;48.088;11.642;2022-08-25T15:31:09;19.13;;;8.98;;
26977;SDS011;56314;48.088;11.642;2022-08-25T15:33:38;19.77;;;9.73;;
26977;SDS011;56314;48.088;11.642;2022-08-25T15:36:10;16.92;;;8.82;;
26977;SDS011;56314;48.088;11.642;2022-08-25T15:38:38;17.63;;;8.68;;
26977;SDS011;56314;48.088;11.642;2022-08-25T15:41:05;15.55;;;9.68;;
26977;SDS011;56314;48.088;11.642;2022-08-25T15:43:33;22.80;;;9.77;;
26977;SDS011;56314;48.088;11.642;2022-08-25T15:45:59;20.30;;;8.95;;
26977;SDS011;56314;48.088;11.642;2022-08-25T15:48:25;21.35;;;9.85;;
26977;SDS011;56314;48.088;11.642;2022-08-25T15:50:54;24.80;;;9.00;;
26977;SDS011;56314;48.088;11.642;2022-08-25T15:53:22;22.85;;;9.95;;
26977;SDS011;56314;48.088;11.642;2022-08-25T15:55:50;22.73;;;10.00;;
26977;SDS011;56314;48.088;11.642;2022-08-25T15:58:16;25.13;;;9.95;;
26977;SDS011;56314;48.088;11.642;2022-08-25T16:00:42;25.55;;;9.63;;
26977;SDS011;56314;48.088;11.642;2022-08-25T16:03:08;24.05;;;10.02;;
26977;SDS011;56314;48.088;11.642;2022-08-25T16:05:34;19.02;;;9.20;;
26977;SDS011;56314;48.088;11.642;2022-08-25T16:08:00;20.48;;;9.07;;
26977;SDS011;56314;48.088;11.642;2022-08-25T16:10:26;24.55;;;9.55;;
26977;SDS011;56314;48.088;11.642;2022-08-25T16:12:51;21.23;;;10.02;;
26977;SDS011;56314;48.088;11.642;2022-08-25T16:15:17;19.38;;;9.50;;
26977;SDS011;56314;48.088;11.642;2022-08-25T16:17:42;24.15;;;9.18;;
26977;SDS011;56314;48.088;11.642;2022-08-25T16:20:08;23.80;;;10.00;;
26977;SDS011;56314;48.088;11.642;2022-08-25T16:22:33;21.65;;;8.85;;
26977;SDS011;56314;48.088;11.642;2022-08-25T16:24:59;21.42;;;9.65;;
26977;SDS011;56314;48.088;11.642;2022-08-25T16:27:26;16.45;;;9.32;;
26977;SDS011;56314;48.088;11.642;2022-08-25T16:29:51;28.52;;;9.73;;
26977;SDS011;56314;48.088;11.642;2022-08-25T16:32:17;20.98;;;9.75;;
26977;SDS011;56314;48.088;11.642;2022-08-25T16:34:43;21.25;;;10.07;;
26977;SDS011;56314;48.088;11.642;2022-08-25T16:37:08;25.65;;;10.32;;
26977;SDS011;56314;48.088;11.642;2022-08-25T16:39:34;20.67;;;9.13;;
26977;SDS011;56314;48.088;11.642;2022-08-25T16:42:00;26.92;;;10.27;;
26977;SDS011;56314;48.088;11.642;2022-08-25T16:44:25;26.13;;;9.27;;
26977;SDS011;56314;48.088;11.642;2022-08-25T16:46:51;22.02;;;9.77;;
26977;SDS011;56314;48.088;11.642;2022-08-25T16:49:18;19.67;;;9.57;;
26977;SDS011;56314;48.088;11.642;2022-08-25T16:51:44;20.70;;;9.55;;
26977;SDS011;56314;48.088;11.642;2022-08-25T16:54:09;19.65;;;9.60;;
26977;SDS011;56314;48.088;11.642;2022-08-25T16:56:54;21.58;;;10.32;;
26977;SDS011;56314;48.088;11.642;2022-08-25T16:59:21;17.73;;;9.45;;